Time;durP1;ratioP1;P1;durP2;ratioP2;P2;SDS_P1;SDS_P2;PMS_P1;PMS_P2;Temp;Humidity;BMP_temperature;BMP_pressure;BME280_temperature;BME280_humidity;BME280_pressure;Samples;Min_cycle;Max_cycle;Signal;HPM_P1;HPM_P2
2021/12/12 00:01:07;;;;;;;0.10;0.10;;;4.40;99.90;;;;;;4925862;29;20478;-67
2021/12/12 00:03:40;;;;;;;0.10;0.10;;;4.50;99.90;;;;;;4949842;28;20054;-67
2021/12/12 00:06:19;;;;;;;0.10;0.10;;;4.50;99.90;;;;;;4974501;28;20042;-68
2021/12/12 00:08:51;;;;;;;0.10;0.10;;;4.60;99.90;;;;;;4990990;28;20054;-68
2021/12/12 00:11:20;;;;;;;0.10;0.10;;;4.60;99.90;;;;;;4993484;28;20022;-68
2021/12/12 00:13:51;;;;;;;0.10;0.10;;;4.50;99.90;;;;;;4974850;28;20488;-69
2021/12/12 00:16:17;;;;;;;0.30;0.30;;;4.60;99.90;;;;;;4974066;28;20500;-68
2021/12/12 00:18:43;;;;;;;0.10;0.10;;;4.50;99.90;;;;;;4974306;28;20030;-68
2021/12/12 00:21:11;;;;;;;0.10;0.10;;;4.60;99.90;;;;;;4973870;28;20026;-68
2021/12/12 00:23:38;;;;;;;0.10;0.10;;;4.60;99.90;;;;;;4956205;28;20107;-68
2021/12/12 00:26:05;;;;;;;0.10;0.10;;;4.60;99.90;;;;;;4972586;28;20448;-68
2021/12/12 00:28:30;;;;;;;0.10;0.10;;;4.60;99.90;;;;;;4973098;28;20034;-68
2021/12/12 00:31:03;;;;;;;0.10;0.10;;;4.60;99.90;;;;;;4973326;28;20047;-68
2021/12/12 00:33:29;;;;;;;0.10;0.10;;;4.60;99.90;;;;;;4973847;28;20023;-68
2021/12/12 00:35:54;;;;;;;0.65;0.65;;;4.70;99.90;;;;;;4973394;28;20030;-68
2021/12/12 00:38:28;;;;;;;0.10;0.10;;;4.70;99.90;;;;;;4985398;28;20552;-68
2021/12/12 00:40:56;;;;;;;0.10;0.10;;;4.70;99.90;;;;;;4990749;28;20066;-68
2021/12/12 00:43:34;;;;;;;0.10;0.10;;;4.70;99.90;;;;;;4993184;28;20038;-68
2021/12/12 00:46:02;;;;;;;0.20;0.20;;;4.70;99.90;;;;;;4986021;28;20038;-68
2021/12/12 00:48:29;;;;;;;0.10;0.10;;;4.70;99.90;;;;;;4991606;28;20038;-68
2021/12/12 00:50:58;;;;;;;0.10;0.10;;;4.60;99.90;;;;;;4987568;28;20134;-68
2021/12/12 00:53:24;;;;;;;0.10;0.10;;;4.70;99.90;;;;;;4991559;28;20073;-68
2021/12/12 00:55:52;;;;;;;0.10;0.10;;;4.60;99.90;;;;;;4985503;28;20030;-68
2021/12/12 00:58:20;;;;;;;0.10;0.10;;;4.70;99.90;;;;;;4984448;28;20029;-68
2021/12/12 01:00:56;;;;;;;0.10;0.10;;;4.60;99.90;;;;;;4972175;28;20219;-68
2021/12/12 01:03:32;;;;;;;0.10;0.10;;;4.60;99.90;;;;;;4985242;28;20030;-67
2021/12/12 01:06:00;;;;;;;0.10;0.10;;;4.60;99.90;;;;;;4991120;28;20085;-67
2021/12/12 01:08:28;;;;;;;0.10;0.10;;;4.60;99.90;;;;;;4974415;28;20062;-68
2021/12/12 01:11:03;;;;;;;0.10;0.10;;;4.60;99.90;;;;;;4992075;28;20548;-68
2021/12/12 01:13:29;;;;;;;0.10;0.10;;;4.60;99.90;;;;;;4975889;28;20054;-68
2021/12/12 01:16:10;;;;;;;0.10;0.10;;;4.60;99.90;;;;;;4972955;28;20058;-67
2021/12/12 01:18:40;;;;;;;0.10;0.10;;;5.00;99.90;;;;;;4972900;28;20248;-67
2021/12/12 01:21:23;;;;;;;0.17;0.17;;;4.50;99.90;;;;;;4978485;28;20034;-68
2021/12/12 01:24:18;;;;;;;0.10;0.10;;;4.50;99.90;;;;;;4981673;28;20030;-67
2021/12/12 01:26:46;;;;;;;0.10;0.10;;;4.60;99.90;;;;;;4986310;28;20531;-68
2021/12/12 01:29:12;;;;;;;0.10;0.10;;;4.60;99.90;;;;;;4988522;28;20026;-67
2021/12/12 01:31:46;;;;;;;0.10;0.10;;;4.50;99.90;;;;;;4988442;28;20048;-67
2021/12/12 01:34:14;;;;;;;0.10;0.10;;;4.60;99.90;;;;;;4983092;28;20121;-67
2021/12/12 01:36:52;;;;;;;0.40;0.40;;;4.50;99.90;;;;;;4990085;28;20038;-67
2021/12/12 01:39:21;;;;;;;0.10;0.10;;;4.50;99.90;;;;;;4982504;28;20750;-67
2021/12/12 01:41:56;;;;;;;0.10;0.10;;;4.50;99.90;;;;;;4981331;28;20650;-69
2021/12/12 01:44:29;;;;;;;0.10;0.10;;;4.50;99.90;;;;;;4985293;28;20026;-69
2021/12/12 01:47:14;;;;;;;2.13;2.03;;;4.50;99.90;;;;;;4991437;28;20122;-67
2021/12/12 01:49:43;;;;;;;0.10;0.10;;;4.60;99.90;;;;;;4999963;28;20075;-68
2021/12/12 01:52:12;;;;;;;0.10;0.10;;;4.60;99.90;;;;;;4999279;28;20027;-68
2021/12/12 01:54:45;;;;;;;0.10;0.10;;;4.60;99.90;;;;;;4983035;28;20594;-68
2021/12/12 01:57:21;;;;;;;0.10;0.10;;;4.50;99.90;;;;;;4962649;28;20030;-68
2021/12/12 01:59:49;;;;;;;0.10;0.10;;;4.50;99.90;;;;;;4970283;28;20441;-68
2021/12/12 02:02:31;;;;;;;0.10;0.10;;;4.50;99.90;;;;;;4991236;28;20488;-68
2021/12/12 02:05:00;;;;;;;0.10;0.10;;;4.50;99.90;;;;;;4982986;28;20504;-68
2021/12/12 02:07:31;;;;;;;0.10;0.10;;;4.50;99.90;;;;;;4973273;28;20438;-68
2021/12/12 02:10:00;;;;;;;0.10;0.10;;;4.50;99.90;;;;;;4988079;28;20038;-68
2021/12/12 02:12:26;;;;;;;0.10;0.10;;;4.50;99.90;;;;;;4975455;28;20031;-68
2021/12/12 02:14:56;;;;;;;0.10;0.10;;;4.50;99.90;;;;;;4972009;28;20050;-68
2021/12/12 02:17:31;;;;;;;0.10;0.10;;;4.50;99.90;;;;;;4987195;28;20118;-68
2021/12/12 02:35:57;;;;;;;0.30;0.30;;;4.40;99.90;;;;;;4971567;28;20042;-68
2021/12/12 02:38:29;;;;;;;0.10;0.10;;;4.40;99.90;;;;;;4972388;28;20030;-70
2021/12/12 02:41:02;;;;;;;0.10;0.10;;;4.40;99.90;;;;;;4989136;28;20027;-68
2021/12/12 02:43:32;;;;;;;0.10;0.10;;;4.30;99.90;;;;;;4990798;28;20518;-68
2021/12/12 02:45:58;;;;;;;0.10;0.10;;;4.30;99.90;;;;;;4979106;28;20114;-68
2021/12/12 02:48:39;;;;;;;0.10;0.10;;;4.30;99.90;;;;;;4974795;28;20106;-68
2021/12/12 02:51:12;;;;;;;0.10;0.10;;;4.30;99.90;;;;;;4971108;28;20462;-68
2021/12/12 02:53:46;;;;;;;0.10;0.10;;;4.30;99.90;;;;;;4991783;28;20026;-68
2021/12/12 02:56:19;;;;;;;0.10;0.10;;;5.70;99.90;;;;;;4983071;28;20290;-68
2021/12/12 02:58:46;;;;;;;1.08;1.08;;;4.40;99.90;;;;;;4986694;28;20069;-68
2021/12/12 03:01:15;;;;;;;0.10;0.10;;;4.40;99.90;;;;;;4990354;28;20026;-68
2021/12/12 03:03:42;;;;;;;0.10;0.10;;;4.40;99.90;;;;;;4986026;28;20073;-68
2021/12/12 03:06:10;;;;;;;0.22;0.22;;;4.40;99.90;;;;;;4979858;28;20045;-68
2021/12/12 03:08:38;;;;;;;0.10;0.10;;;4.30;99.90;;;;;;4979155;28;20031;-67
2021/12/12 03:11:04;;;;;;;0.10;0.10;;;4.40;99.90;;;;;;4988456;28;20524;-67
2021/12/12 03:13:30;;;;;;;0.10;0.10;;;4.30;99.90;;;;;;4982375;28;20050;-67
2021/12/12 03:15:56;;;;;;;0.10;0.10;;;4.30;99.90;;;;;;4987532;28;20037;-68
2021/12/12 03:18:39;;;;;;;0.10;0.10;;;4.30;99.90;;;;;;4971714;28;20023;-68
2021/12/12 03:21:35;;;;;;;0.43;0.43;;;4.30;99.90;;;;;;4988587;28;20035;-69
2021/12/12 03:24:08;;;;;;;0.10;0.10;;;4.30;99.90;;;;;;4979877;28;20517;-68
2021/12/12 03:26:36;;;;;;;0.10;0.10;;;4.30;99.90;;;;;;4990458;28;20034;-67
2021/12/12 03:29:04;;;;;;;0.10;0.10;;;4.20;99.90;;;;;;4971650;28;20369;-68
2021/12/12 03:31:36;;;;;;;0.10;0.10;;;4.10;99.90;;;;;;4983077;28;20181;-68
2021/12/12 03:34:08;;;;;;;0.10;0.10;;;4.00;99.90;;;;;;4983305;28;20085;-68
2021/12/12 03:36:34;;;;;;;0.10;0.10;;;4.00;99.90;;;;;;4982892;28;20065;-67
2021/12/12 03:39:08;;;;;;;0.10;0.10;;;3.90;99.90;;;;;;4989809;28;20026;-67
2021/12/12 03:41:38;;;;;;;0.10;0.10;;;3.90;99.90;;;;;;4990453;28;20502;-68
2021/12/12 03:44:07;;;;;;;0.60;0.60;;;3.80;99.90;;;;;;4972111;28;20096;-67
2021/12/12 03:46:35;;;;;;;0.10;0.10;;;3.80;99.90;;;;;;4985698;28;20022;-67
2021/12/12 03:49:01;;;;;;;0.10;0.10;;;3.80;99.90;;;;;;4989688;28;20077;-67
2021/12/12 03:51:28;;;;;;;0.30;0.30;;;3.80;99.90;;;;;;4974970;28;20050;-67
2021/12/12 03:53:54;;;;;;;0.10;0.10;;;3.90;99.90;;;;;;4974877;28;20106;-67
2021/12/12 03:56:21;;;;;;;0.10;0.10;;;3.80;99.90;;;;;;4970816;28;20592;-67
2021/12/12 03:58:47;;;;;;;0.10;0.10;;;3.80;99.90;;;;;;4986107;28;20114;-66
2021/12/12 04:01:27;;;;;;;0.10;0.10;;;3.90;99.90;;;;;;4969943;28;20023;-67
2021/12/12 04:03:56;;;;;;;0.10;0.10;;;3.80;99.90;;;;;;4970643;28;20038;-67
2021/12/12 04:06:25;;;;;;;0.20;0.20;;;3.80;99.90;;;;;;4970235;28;20109;-69
2021/12/12 04:08:53;;;;;;;0.10;0.10;;;3.80;99.90;;;;;;4989925;28;20034;-67
2021/12/12 04:11:35;;;;;;;0.10;0.10;;;3.80;99.90;;;;;;4987465;28;20023;-67
2021/12/12 04:14:03;;;;;;;0.10;0.10;;;3.70;99.90;;;;;;4985877;28;20026;-67
2021/12/12 04:16:32;;;;;;;0.10;0.10;;;3.70;99.90;;;;;;4985185;28;20030;-67
2021/12/12 04:18:58;;;;;;;0.10;0.10;;;3.60;99.90;;;;;;4988127;28;20019;-67
2021/12/12 04:21:26;;;;;;;0.10;0.10;;;3.60;99.90;;;;;;4989338;28;20030;-67
2021/12/12 04:23:52;;;;;;;0.10;0.10;;;3.60;99.90;;;;;;4988508;28;20022;-67
2021/12/12 04:26:26;;;;;;;0.35;0.35;;;3.60;99.90;;;;;;4989449;28;20027;-67
2021/12/12 04:29:12;;;;;;;0.10;0.10;;;3.50;99.90;;;;;;4989401;28;20026;-67
2021/12/12 04:31:41;;;;;;;0.10;0.10;;;3.40;99.90;;;;;;4987094;28;20488;-67
2021/12/12 04:34:08;;;;;;;0.30;0.30;;;3.40;99.90;;;;;;4989007;28;20206;-67
2021/12/12 04:36:40;;;;;;;0.10;0.10;;;3.30;99.90;;;;;;4989298;28;20034;-67
2021/12/12 04:39:13;;;;;;;0.10;0.10;;;3.30;99.90;;;;;;4989816;28;20019;-67
2021/12/12 04:41:40;;;;;;;0.10;0.10;;;3.30;99.90;;;;;;4988180;28;20083;-67
2021/12/12 04:44:06;;;;;;;0.10;0.10;;;3.30;99.90;;;;;;4987872;28;20069;-67
2021/12/12 04:52:20;;;;;;;0.10;0.10;;;3.10;99.90;;;;;;4991720;28;20106;-67
2021/12/12 04:54:57;;;;;;;0.10;0.10;;;3.10;99.90;;;;;;4993025;28;20027;-69
2021/12/12 04:57:29;;;;;;;0.10;0.10;;;3.00;99.90;;;;;;4975386;28;20077;-69
2021/12/12 05:00:06;;;;;;;0.10;0.10;;;3.00;99.90;;;;;;4985755;28;20144;-69
2021/12/12 05:02:55;;;;;;;0.10;0.10;;;3.00;99.90;;;;;;4973773;28;20093;-68
2021/12/12 05:05:34;;;;;;;0.10;0.10;;;3.00;99.90;;;;;;4973558;28;20030;-67
2021/12/12 05:08:08;;;;;;;0.10;0.10;;;3.00;99.90;;;;;;4973029;28;20481;-68
2021/12/12 05:11:03;;;;;;;0.10;0.10;;;2.80;99.90;;;;;;4984614;28;20033;-67
2021/12/12 05:13:41;;;;;;;0.10;0.10;;;2.80;99.90;;;;;;4976683;28;20153;-67
2021/12/12 05:16:29;;;;;;;0.10;0.10;;;2.60;99.90;;;;;;4992053;28;20018;-68
2021/12/12 05:19:27;;;;;;;0.10;0.10;;;2.50;99.90;;;;;;4973639;28;20034;-68
2021/12/12 05:21:58;;;;;;;0.13;0.13;;;2.50;99.90;;;;;;4979371;28;20034;-68
2021/12/12 05:24:26;;;;;;;0.10;0.10;;;2.50;99.90;;;;;;4992145;28;20061;-67
2021/12/12 05:26:58;;;;;;;0.10;0.10;;;1.90;99.90;;;;;;4986283;28;20037;-67
2021/12/12 05:29:41;;;;;;;0.38;0.38;;;2.50;99.90;;;;;;4991716;28;20500;-67
2021/12/12 05:32:08;;;;;;;0.10;0.10;;;2.40;99.90;;;;;;4988124;28;20105;-67
2021/12/12 05:34:38;;;;;;;0.10;0.10;;;2.40;99.90;;;;;;4987006;28;20046;-67
2021/12/12 05:37:04;;;;;;;0.57;0.57;;;2.40;99.90;;;;;;4975082;28;20022;-68
2021/12/12 05:39:31;;;;;;;0.10;0.10;;;2.40;99.90;;;;;;4991680;28;20093;-67
2021/12/12 05:41:58;;;;;;;0.10;0.10;;;2.50;99.90;;;;;;4992393;28;20019;-67
2021/12/12 05:44:27;;;;;;;0.10;0.10;;;2.40;99.90;;;;;;4976315;28;20178;-68
2021/12/12 05:46:55;;;;;;;0.10;0.10;;;2.40;99.90;;;;;;4990116;28;20026;-67
2021/12/12 05:49:20;;;;;;;0.10;0.10;;;2.40;99.90;;;;;;4991803;28;20116;-68
2021/12/12 05:51:47;;;;;;;7.38;3.92;;;2.40;99.90;;;;;;4983627;28;20085;-67
2021/12/12 05:54:13;;;;;;;0.10;0.10;;;2.40;99.90;;;;;;4972483;28;20139;-68
2021/12/12 05:56:40;;;;;;;0.20;0.20;;;2.40;99.90;;;;;;4972419;28;20245;-68
2021/12/12 05:59:08;;;;;;;0.22;0.22;;;3.30;99.90;;;;;;4977752;28;20038;-68
2021/12/12 06:01:35;;;;;;;2.63;1.38;;;2.40;99.90;;;;;;4972056;28;20038;-67
2021/12/12 06:04:01;;;;;;;0.10;0.10;;;2.50;99.90;;;;;;4972344;28;20050;-67
2021/12/12 06:06:32;;;;;;;0.10;0.10;;;2.50;99.90;;;;;;4971817;28;20029;-68
2021/12/12 06:09:01;;;;;;;0.10;0.10;;;2.50;99.90;;;;;;4972913;28;20125;-68
2021/12/12 06:11:30;;;;;;;0.10;0.10;;;2.50;99.90;;;;;;4986301;28;20030;-68
2021/12/12 06:13:56;;;;;;;15.00;2.88;;;2.50;99.90;;;;;;4988845;28;20114;-67
2021/12/12 06:16:23;;;;;;;0.10;0.10;;;2.50;99.90;;;;;;4988148;28;20447;-67
2021/12/12 06:18:57;;;;;;;0.10;0.10;;;2.60;99.90;;;;;;4984996;28;20106;-67
2021/12/12 06:21:24;;;;;;;0.10;0.10;;;2.60;99.90;;;;;;4984825;28;20054;-68
2021/12/12 06:23:51;;;;;;;0.10;0.10;;;2.70;99.90;;;;;;4982745;28;20073;-68
2021/12/12 06:26:19;;;;;;;0.10;0.10;;;2.70;99.90;;;;;;4986292;28;20488;-68
2021/12/12 06:28:44;;;;;;;0.10;0.10;;;2.70;99.90;;;;;;4988461;28;20433;-67
2021/12/12 06:31:10;;;;;;;0.25;0.25;;;2.70;99.90;;;;;;4989576;28;20065;-67
2021/12/12 06:33:38;;;;;;;0.10;0.10;;;2.60;99.90;;;;;;4991065;28;20041;-68
2021/12/12 06:36:10;;;;;;;0.10;0.10;;;2.60;99.90;;;;;;4990942;28;20045;-68
2021/12/12 06:38:37;;;;;;;0.10;0.10;;;2.50;99.90;;;;;;4986884;28;20492;-68
2021/12/12 06:41:04;;;;;;;0.10;0.10;;;2.60;99.90;;;;;;4971340;28;20118;-67
2021/12/12 06:43:30;;;;;;;0.20;0.20;;;2.50;99.90;;;;;;4980069;28;20037;-68
2021/12/12 06:45:58;;;;;;;0.20;0.20;;;2.60;99.90;;;;;;4990512;28;20045;-68
2021/12/12 06:48:24;;;;;;;0.10;0.10;;;2.50;99.90;;;;;;4980392;28;20069;-67
2021/12/12 06:50:53;;;;;;;0.10;0.10;;;2.50;99.90;;;;;;4971279;28;20035;-68
2021/12/12 06:53:22;;;;;;;0.10;0.10;;;2.50;99.90;;;;;;4983007;28;20499;-68
2021/12/12 06:55:48;;;;;;;0.10;0.10;;;2.50;99.90;;;;;;4990501;28;20026;-68
2021/12/12 06:58:16;;;;;;;0.10;0.10;;;2.50;99.90;;;;;;4989273;28;20068;-68
2021/12/12 07:00:44;;;;;;;0.10;0.10;;;2.50;99.90;;;;;;4985426;28;20022;-68
2021/12/12 07:03:14;;;;;;;0.10;0.10;;;2.40;99.90;;;;;;5021681;22;20045;-77
2021/12/12 07:05:40;;;;;;;0.10;0.10;;;2.40;99.90;;;;;;5030256;28;20021;-76
2021/12/12 07:08:06;;;;;;;0.10;0.10;;;2.30;99.90;;;;;;5031902;28;20127;-78
2021/12/12 07:10:33;;;;;;;2.50;2.30;;;2.30;99.90;;;;;;5032876;28;20022;-77
2021/12/12 07:13:00;;;;;;;0.10;0.10;;;2.20;99.90;;;;;;5040161;28;20502;-77
2021/12/12 07:15:31;;;;;;;0.10;0.10;;;2.20;99.90;;;;;;5054716;28;20075;-76
2021/12/12 07:17:59;;;;;;;0.10;0.10;;;2.20;99.90;;;;;;5067901;28;20017;-76
2021/12/12 07:20:26;;;;;;;0.10;0.10;;;2.20;99.90;;;;;;5064295;28;20025;-76
2021/12/12 07:22:53;;;;;;;0.10;0.10;;;2.20;99.90;;;;;;5041967;28;20032;-76
2021/12/12 07:25:20;;;;;;;0.10;0.10;;;2.10;99.90;;;;;;5039252;28;20059;-76
2021/12/12 07:27:51;;;;;;;0.10;0.10;;;2.10;99.90;;;;;;5041524;28;20079;-76
2021/12/12 07:30:16;;;;;;;0.15;0.15;;;2.10;99.90;;;;;;5037105;28;20506;-77
2021/12/12 07:32:42;;;;;;;0.10;0.10;;;2.10;99.90;;;;;;5044677;28;20102;-77
2021/12/12 07:35:11;;;;;;;0.10;0.10;;;2.10;99.90;;;;;;5053686;28;20029;-76
2021/12/12 07:37:37;;;;;;;0.10;0.10;;;2.10;99.90;;;;;;5068715;28;20269;-77
2021/12/12 07:40:06;;;;;;;0.10;0.10;;;2.10;99.90;;;;;;5053252;28;20032;-78
2021/12/12 07:42:32;;;;;;;0.10;0.10;;;2.10;99.90;;;;;;5051360;28;20018;-77
2021/12/12 07:44:57;;;;;;;0.10;0.10;;;2.10;99.90;;;;;;5050934;28;20084;-77
2021/12/12 07:47:24;;;;;;;0.10;0.10;;;2.10;99.90;;;;;;5046474;28;20498;-77
2021/12/12 07:49:50;;;;;;;0.30;0.30;;;2.10;99.90;;;;;;5037065;28;20032;-75
2021/12/12 07:52:21;;;;;;;0.10;0.10;;;2.10;99.90;;;;;;5048455;28;20115;-76
2021/12/12 07:54:49;;;;;;;0.10;0.10;;;2.20;99.90;;;;;;5052285;28;20025;-77
2021/12/12 07:57:17;;;;;;;0.10;0.10;;;2.30;99.90;;;;;;5058427;28;20367;-77
2021/12/12 07:59:43;;;;;;;0.10;0.10;;;2.40;99.90;;;;;;5057563;28;20025;-77
2021/12/12 08:02:11;;;;;;;0.10;0.10;;;2.50;99.90;;;;;;5069318;28;20028;-78
2021/12/12 08:04:39;;;;;;;0.43;0.43;;;2.60;99.90;;;;;;5066200;28;20021;-78
2021/12/12 08:07:11;;;;;;;0.10;0.10;;;2.70;99.90;;;;;;5053591;28;20016;-78
2021/12/12 08:09:41;;;;;;;0.10;0.10;;;2.80;99.90;;;;;;5060310;28;20017;-78
2021/12/12 08:12:10;;;;;;;0.10;0.10;;;2.80;99.90;;;;;;5055739;28;20013;-79
2021/12/12 08:14:36;;;;;;;0.10;0.10;;;2.90;99.90;;;;;;5040847;28;20036;-78
2021/12/12 08:17:04;;;;;;;0.10;0.10;;;3.20;99.90;;;;;;5042783;28;20029;-79
2021/12/12 08:19:30;;;;;;;0.10;0.10;;;3.00;99.90;;;;;;5037886;28;20033;-78
2021/12/12 08:22:02;;;;;;;0.10;0.10;;;3.10;99.90;;;;;;5032810;28;20105;-78
2021/12/12 08:24:30;;;;;;;0.10;0.10;;;3.10;99.90;;;;;;5034977;28;20104;-75
2021/12/12 08:26:56;;;;;;;0.10;0.10;;;3.20;99.90;;;;;;5046100;28;20045;-78
2021/12/12 08:29:22;;;;;;;0.10;0.10;;;3.30;99.90;;;;;;5046330;28;20518;-78
2021/12/12 08:31:48;;;;;;;0.10;0.10;;;3.40;99.90;;;;;;5040707;28;20029;-78
2021/12/12 08:34:15;;;;;;;0.10;0.10;;;3.50;99.90;;;;;;5047627;28;20022;-78
2021/12/12 08:36:46;;;;;;;0.10;0.10;;;3.40;99.90;;;;;;5048538;28;20072;-77
2021/12/12 08:39:12;;;;;;;0.10;0.10;;;3.40;99.90;;;;;;5039957;28;20043;-77
2021/12/12 08:41:41;;;;;;;0.10;0.10;;;3.50;99.90;;;;;;5035400;28;20021;-77
2021/12/12 08:44:11;;;;;;;0.10;0.10;;;3.50;99.90;;;;;;5053835;28;20036;-77
2021/12/12 08:46:39;;;;;;;0.10;0.10;;;3.50;99.90;;;;;;5044228;28;20030;-78
2021/12/12 08:49:08;;;;;;;0.10;0.10;;;3.60;99.90;;;;;;5045101;28;20025;-77
2021/12/12 08:51:38;;;;;;;0.10;0.10;;;3.60;99.90;;;;;;5050322;28;20029;-78
2021/12/12 08:54:14;;;;;;;0.47;0.47;;;3.70;99.90;;;;;;5058855;28;20035;-77
2021/12/12 08:56:48;;;;;;;0.10;0.10;;;3.60;99.90;;;;;;5053471;28;20178;-78
2021/12/12 08:59:26;;;;;;;0.10;0.10;;;3.60;99.90;;;;;;5051728;28;20084;-78
2021/12/12 09:01:56;;;;;;;0.10;0.10;;;3.60;99.90;;;;;;5047317;28;20550;-77
2021/12/12 09:04:22;;;;;;;0.10;0.10;;;3.60;99.90;;;;;;5043536;28;20029;-77
2021/12/12 09:06:55;;;;;;;0.10;0.10;;;3.70;99.90;;;;;;5043399;28;20060;-77
2021/12/12 09:09:23;;;;;;;;;;;3.70;99.90;;;;;;5043745;28;20541;-78
2021/12/12 09:12:20;;;;;;;0.10;0.10;;;3.80;99.90;;;;;;5040528;28;19919;-80
2021/12/12 09:15:07;;;;;;;0.10;0.10;;;3.70;99.90;;;;;;5041948;28;20021;-76
2021/12/12 09:17:40;;;;;;;0.10;0.10;;;3.70;99.90;;;;;;5044789;28;20022;-77
2021/12/12 09:20:20;;;;;;;0.10;0.10;;;3.80;99.90;;;;;;5048914;28;20021;-76
2021/12/12 09:23:16;;;;;;;0.10;0.10;;;3.70;99.90;;;;;;5044627;28;20021;-79
2021/12/12 09:25:52;;;;;;;0.10;0.10;;;3.70;99.90;;;;;;5049953;28;20037;-77
2021/12/12 09:28:34;;;;;;;1.65;1.55;;;3.70;99.90;;;;;;5046306;28;20463;-77
2021/12/12 09:31:05;;;;;;;0.10;0.10;;;3.80;99.90;;;;;;5043492;28;20114;-77
2021/12/12 09:33:49;;;;;;;0.65;0.63;;;3.90;99.90;;;;;;5047429;28;20044;-78
2021/12/12 09:36:41;;;;;;;0.10;0.10;;;3.90;99.90;;;;;;5045247;28;20020;-77
2021/12/12 09:39:19;;;;;;;0.10;0.10;;;4.00;99.90;;;;;;5052557;28;20021;-76
2021/12/12 09:42:24;;;;;;;0.10;0.10;;;4.00;99.90;;;;;;5048607;28;20388;-77
2021/12/12 09:45:01;;;;;;;0.10;0.10;;;4.10;99.90;;;;;;5033397;28;20041;-77
2021/12/12 09:51:23;;;;;;;0.10;0.10;;;4.10;99.90;;;;;;5050487;28;20032;-77
2021/12/12 09:53:51;;;;;;;0.10;0.10;;;4.20;99.90;;;;;;5039407;28;20104;-77
2021/12/12 09:56:56;;;;;;;0.10;0.10;;;4.30;99.90;;;;;;5055366;28;20117;-77
2021/12/12 09:59:58;;;;;;;0.10;0.10;;;4.40;99.90;;;;;;5048252;28;20020;-77
2021/12/12 10:02:34;;;;;;;0.10;0.10;;;4.60;99.90;;;;;;5053417;28;20487;-78
2021/12/12 10:05:26;;;;;;;0.10;0.10;;;4.60;99.90;;;;;;5052614;28;20083;-77
2021/12/12 10:08:11;;;;;;;0.10;0.10;;;4.60;99.90;;;;;;5052348;28;20041;-77
2021/12/12 10:11:01;;;;;;;0.10;0.10;;;4.60;99.90;;;;;;5036320;28;20029;-76
2021/12/12 10:13:43;;;;;;;0.10;0.10;;;4.60;99.90;;;;;;5035724;28;20184;-77
2021/12/12 10:17:04;;;;;;;0.10;0.10;;;4.60;99.90;;;;;;5032281;28;20033;-77
2021/12/12 10:19:39;;;;;;;0.10;0.10;;;4.70;99.90;;;;;;5000391;28;20040;-77
2021/12/12 10:22:43;;;;;;;0.10;0.10;;;4.80;99.90;;;;;;5035781;28;20049;-77
2021/12/12 10:25:40;;;;;;;0.10;0.10;;;4.90;99.90;;;;;;5004602;28;20133;-77
2021/12/12 10:28:28;;;;;;;0.10;0.10;;;4.90;99.90;;;;;;4950412;28;20206;-76
2021/12/12 10:31:02;;;;;;;0.10;0.10;;;5.10;99.90;;;;;;5034627;28;20071;-77
2021/12/12 10:33:40;;;;;;;0.10;0.10;;;5.10;99.90;;;;;;5055416;28;20025;-76
2021/12/12 10:36:52;;;;;;;0.10;0.10;;;5.10;99.90;;;;;;5050323;28;20176;-77
2021/12/12 10:39:23;;;;;;;0.10;0.10;;;5.10;99.90;;;;;;5062686;28;20052;-78
2021/12/12 10:41:54;;;;;;;0.10;0.10;;;5.10;99.90;;;;;;5069751;28;20032;-76
2021/12/12 10:44:28;;;;;;;0.10;0.10;;;5.20;99.90;;;;;;5069861;28;20021;-76
2021/12/12 10:47:15;;;;;;;0.10;0.10;;;5.30;99.90;;;;;;5069529;28;20064;-77
2021/12/12 10:49:52;;;;;;;0.10;0.10;;;5.40;99.90;;;;;;5068170;28;20056;-77
2021/12/12 10:52:31;;;;;;;0.10;0.10;;;5.50;99.90;;;;;;5068602;28;20031;-76
2021/12/12 10:55:07;;;;;;;0.10;0.10;;;5.60;99.90;;;;;;5060044;28;20025;-78
2021/12/12 10:57:36;;;;;;;0.10;0.10;;;5.60;99.90;;;;;;5070216;28;20009;-75
2021/12/12 11:00:18;;;;;;;0.10;0.10;;;5.80;99.90;;;;;;5064247;28;20028;-76
2021/12/12 11:03:10;;;;;;;0.10;0.10;;;5.80;99.90;;;;;;5051871;28;20045;-76
2021/12/12 11:05:42;;;;;;;0.10;0.10;;;6.00;99.90;;;;;;5065645;28;20093;-76
2021/12/12 11:08:22;;;;;;;0.10;0.10;;;6.10;99.90;;;;;;5058543;28;20116;-76
2021/12/12 11:10:49;;;;;;;0.10;0.10;;;6.00;99.90;;;;;;5071019;28;20025;-76
2021/12/12 11:13:25;;;;;;;0.10;0.10;;;6.00;99.90;;;;;;5051349;28;20033;-78
2021/12/12 11:16:06;;;;;;;0.10;0.10;;;6.10;99.90;;;;;;5060510;28;20049;-76
2021/12/12 11:18:40;;;;;;;0.10;0.10;;;6.10;99.90;;;;;;5056412;28;20014;-75
2021/12/12 11:21:24;;;;;;;0.10;0.10;;;6.20;99.90;;;;;;5063103;28;20064;-73
2021/12/12 11:23:53;;;;;;;0.10;0.10;;;6.30;99.90;;;;;;5061379;28;20055;-74
2021/12/12 11:26:31;;;;;;;0.10;0.10;;;6.30;99.90;;;;;;5062780;28;20056;-74
2021/12/12 11:29:03;;;;;;;0.10;0.10;;;6.10;99.90;;;;;;5046751;28;20026;-75
2021/12/12 11:31:41;;;;;;;0.10;0.10;;;6.20;99.90;;;;;;5042118;28;20064;-76
2021/12/12 11:34:08;;;;;;;0.10;0.10;;;6.20;99.90;;;;;;5044235;28;20108;-76
2021/12/12 11:37:10;;;;;;;0.10;0.10;;;6.20;99.90;;;;;;5044404;28;20200;-76
2021/12/12 11:40:01;;;;;;;0.20;0.20;;;6.30;99.90;;;;;;5044154;28;20061;-75
2021/12/12 11:42:52;;;;;;;0.10;0.10;;;6.70;99.90;;;;;;5042271;28;20332;-76
2021/12/12 11:45:26;;;;;;;0.10;0.10;;;6.50;99.90;;;;;;5063657;28;20053;-75
2021/12/12 11:47:57;;;;;;;0.10;0.10;;;6.90;99.90;;;;;;5045135;28;20025;-75
2021/12/12 11:51:07;;;;;;;0.32;0.32;;;6.30;99.90;;;;;;5045202;28;20029;-77
2021/12/12 11:53:49;;;;;;;0.10;0.10;;;6.30;99.90;;;;;;5042574;28;20079;-76
2021/12/12 11:56:25;;;;;;;0.10;0.10;;;6.20;99.90;;;;;;5043466;28;20024;-76
2021/12/12 11:59:09;;;;;;;0.10;0.10;;;6.40;99.90;;;;;;5039580;28;20467;-76
2021/12/12 12:01:49;;;;;;;0.10;0.10;;;6.50;99.90;;;;;;5047722;28;20521;-76
2021/12/12 12:04:32;;;;;;;0.10;0.10;;;6.50;99.90;;;;;;5039766;28;20040;-76
2021/12/12 12:07:19;;;;;;;0.10;0.10;;;6.60;99.90;;;;;;5046185;28;20116;-77
2021/12/12 12:10:12;;;;;;;0.10;0.10;;;6.60;99.90;;;;;;5045008;28;20020;-76
2021/12/12 12:12:57;;;;;;;0.17;0.17;;;6.70;99.90;;;;;;5049865;28;20439;-73
2021/12/12 12:15:25;;;;;;;0.10;0.10;;;6.70;99.90;;;;;;5043934;28;20064;-76
2021/12/12 12:18:22;;;;;;;0.10;0.10;;;6.80;99.90;;;;;;5058919;28;20022;-77
2021/12/12 12:20:58;;;;;;;0.10;0.10;;;6.80;99.90;;;;;;5044909;28;20021;-76
2021/12/12 12:23:48;;;;;;;0.10;0.10;;;6.80;99.90;;;;;;5041945;28;20020;-76
2021/12/12 12:29:28;;;;;;;0.10;0.10;;;6.90;99.90;;;;;;5043288;28;20040;-73
2021/12/12 12:32:31;;;;;;;0.20;0.20;;;7.00;99.90;;;;;;5043325;28;20064;-77
2021/12/12 12:35:34;;;;;;;0.10;0.10;;;7.00;99.90;;;;;;5037984;28;20029;-73
2021/12/12 12:38:37;;;;;;;0.35;0.35;;;7.00;99.90;;;;;;5041523;28;20021;-76
2021/12/12 12:41:31;;;;;;;0.10;0.10;;;6.90;99.90;;;;;;5044083;28;20037;-74
2021/12/12 12:44:34;;;;;;;0.10;0.10;;;6.80;99.90;;;;;;5037830;28;20048;-72
2021/12/12 12:47:31;;;;;;;0.10;0.10;;;6.60;99.90;;;;;;5041731;28;20089;-73
2021/12/12 12:50:35;;;;;;;0.10;0.10;;;6.60;99.90;;;;;;5040217;28;20108;-73
2021/12/12 12:53:39;;;;;;;0.10;0.10;;;6.50;99.90;;;;;;5038901;28;20029;-73
2021/12/12 12:56:08;;;;;;;0.10;0.10;;;6.50;99.90;;;;;;5001889;28;20041;-73
2021/12/12 12:58:46;;;;;;;0.10;0.10;;;6.50;99.90;;;;;;5042128;28;20021;-72
2021/12/12 13:01:44;;;;;;;0.10;0.10;;;6.50;99.90;;;;;;5042806;28;20029;-73
2021/12/12 13:04:15;;;;;;;0.10;0.10;;;6.70;99.90;;;;;;5043208;28;20528;-72
2021/12/12 13:07:23;;;;;;;0.73;0.73;;;6.60;99.90;;;;;;5041043;28;20167;-73
2021/12/12 13:09:59;;;;;;;0.10;0.10;;;6.80;99.90;;;;;;5038843;28;20048;-73
2021/12/12 13:12:42;;;;;;;0.10;0.10;;;6.90;99.90;;;;;;5042429;28;20493;-74
2021/12/12 13:15:26;;;;;;;2.85;2.65;;;6.90;99.90;;;;;;5049142;28;20021;-73
2021/12/12 13:18:09;;;;;;;0.10;0.10;;;6.90;99.90;;;;;;5040594;28;20021;-74
2021/12/12 13:21:01;;;;;;;0.20;0.20;;;6.80;99.90;;;;;;5042283;28;20033;-74
2021/12/12 13:23:47;;;;;;;0.10;0.10;;;6.80;99.90;;;;;;5041280;28;20026;-74
2021/12/12 13:26:42;;;;;;;0.40;0.40;;;6.70;99.90;;;;;;5042393;28;20022;-73
2021/12/12 13:29:15;;;;;;;0.10;0.10;;;6.60;99.90;;;;;;5041394;28;20064;-73
2021/12/12 13:32:17;;;;;;;0.10;0.10;;;6.70;99.90;;;;;;5045627;28;20104;-73
2021/12/12 13:35:10;;;;;;;0.10;0.10;;;6.70;99.90;;;;;;5038245;28;20102;-73
2021/12/12 13:37:56;;;;;;;0.10;0.10;;;6.70;99.90;;;;;;5049238;28;20028;-75
2021/12/12 13:40:25;;;;;;;0.10;0.10;;;6.60;99.90;;;;;;5042763;28;20068;-73
2021/12/12 13:43:03;;;;;;;0.10;0.10;;;6.70;99.90;;;;;;5048018;28;20035;-72
2021/12/12 13:45:46;;;;;;;0.10;0.10;;;6.60;99.90;;;;;;5043400;28;20025;-73
2021/12/12 13:48:38;;;;;;;0.10;0.10;;;6.60;99.90;;;;;;5038204;28;21646;-74
2021/12/12 13:51:08;;;;;;;2.13;1.95;;;6.60;99.90;;;;;;5036964;28;20494;-72
2021/12/12 13:54:11;;;;;;;0.10;0.10;;;6.60;99.90;;;;;;5037769;28;20021;-73
2021/12/12 13:56:42;;;;;;;0.10;0.10;;;6.60;99.90;;;;;;5040489;28;20024;-74
2021/12/12 13:59:29;;;;;;;0.10;0.10;;;6.70;99.90;;;;;;5046741;28;20386;-72
2021/12/12 14:01:59;;;;;;;0.10;0.10;;;6.70;99.90;;;;;;5038721;28;20075;-76
2021/12/12 14:04:47;;;;;;;0.10;0.10;;;6.70;99.90;;;;;;5033809;28;20037;-77
2021/12/12 14:07:15;;;;;;;0.10;0.10;;;6.70;99.90;;;;;;5041509;28;20030;-76